sensor_id;sensor_type;location;lat;lon;timestamp;pressure;altitude;pressure_sealevel;temperature;humidity
23417;BME280;11881;42.432;25.632;2024-03-23T00:55:22;99406.41;;;6.07;100.00
23417;BME280;11881;42.432;25.632;2024-03-23T00:57:48;99411.38;;;5.99;100.00
23417;BME280;11881;42.432;25.632;2024-03-23T01:00:14;99408.00;;;6.10;100.00
23417;BME280;11881;42.432;25.632;2024-03-23T01:02:39;99408.88;;;5.98;100.00
23417;BME280;11881;42.432;25.632;2024-03-23T01:05:05;99408.84;;;6.10;100.00
23417;BME280;11881;42.432;25.632;2024-03-23T01:07:30;99413.91;;;6.01;100.00
23417;BME280;11881;42.432;25.632;2024-03-23T01:09:56;99412.28;;;5.85;100.00
23417;BME280;11881;42.432;25.632;2024-03-23T01:12:21;99411.94;;;5.92;100.00
23417;BME280;11881;42.432;25.632;2024-03-23T01:14:47;99412.75;;;6.18;100.00
23417;BME280;11881;42.432;25.632;2024-03-23T01:17:12;99409.16;;;6.06;100.00
23417;BME280;11881;42.432;25.632;2024-03-23T01:19:38;99403.31;;;6.13;100.00
23417;BME280;11881;42.432;25.632;2024-03-23T01:22:04;99394.38;;;6.03;100.00
23417;BME280;11881;42.432;25.632;2024-03-23T01:24:30;99398.59;;;6.06;100.00
23417;BME280;11881;42.432;25.632;2024-03-23T01:26:55;99403.25;;;6.15;100.00
23417;BME280;11881;42.432;25.632;2024-03-23T01:29:21;99392.44;;;6.05;100.00
23417;BME280;11881;42.432;25.632;2024-03-23T01:31:46;99399.31;;;6.08;100.00
23417;BME280;11881;42.432;25.632;2024-03-23T01:34:12;99401.94;;;6.08;100.00
23417;BME280;11881;42.432;25.632;2024-03-23T01:36:37;99400.28;;;5.94;100.00
23417;BME280;11881;42.432;25.632;2024-03-23T01:39:04;99397.63;;;5.81;100.00
23417;BME280;11881;42.432;25.632;2024-03-23T01:41:29;99401.66;;;5.74;100.00
23417;BME280;11881;42.432;25.632;2024-03-23T01:43:55;99399.31;;;5.82;100.00
23417;BME280;11881;42.432;25.632;2024-03-23T01:46:21;99397.19;;;5.87;100.00
23417;BME280;11881;42.432;25.632;2024-03-23T01:48:47;99393.78;;;5.73;100.00
23417;BME280;11881;42.432;25.632;2024-03-23T01:51:13;99393.72;;;5.74;100.00
23417;BME280;11881;42.432;25.632;2024-03-23T01:53:38;99395.06;;;5.67;100.00
23417;BME280;11881;42.432;25.632;2024-03-23T01:56:05;99391.16;;;5.60;100.00
23417;BME280;11881;42.432;25.632;2024-03-23T01:58:30;99385.88;;;5.60;100.00
23417;BME280;11881;42.432;25.632;2024-03-23T02:00:57;99395.09;;;5.80;100.00
23417;BME280;11881;42.432;25.632;2024-03-23T02:03:24;99389.56;;;5.57;100.00
23417;BME280;11881;42.432;25.632;2024-03-23T02:05:50;99390.50;;;5.56;100.00
23417;BME280;11881;42.432;25.632;2024-03-23T02:08:20;99389.03;;;5.52;100.00
23417;BME280;11881;42.432;25.632;2024-03-23T02:10:47;99389.44;;;5.33;100.00
23417;BME280;11881;42.432;25.632;2024-03-23T02:13:14;99390.16;;;5.23;100.00
23417;BME280;11881;42.432;25.632;2024-03-23T02:15:39;99394.25;;;5.14;100.00
23417;BME280;11881;42.432;25.632;2024-03-23T02:18:07;99391.56;;;5.28;100.00
23417;BME280;11881;42.432;25.632;2024-03-23T02:20:32;99395.22;;;5.26;100.00
23417;BME280;11881;42.432;25.632;2024-03-23T02:22:58;99386.16;;;5.43;100.00
23417;BME280;11881;42.432;25.632;2024-03-23T02:25:23;99386.59;;;5.62;100.00
23417;BME280;11881;42.432;25.632;2024-03-23T02:27:49;99390.06;;;5.37;100.00
23417;BME280;11881;42.432;25.632;2024-03-23T02:30:15;99389.34;;;5.35;100.00
23417;BME280;11881;42.432;25.632;2024-03-23T02:32:40;99380.84;;;5.17;100.00
23417;BME280;11881;42.432;25.632;2024-03-23T02:35:06;99384.47;;;5.29;100.00
23417;BME280;11881;42.432;25.632;2024-03-23T02:37:32;99389.47;;;5.06;100.00
23417;BME280;11881;42.432;25.632;2024-03-23T02:39:58;99381.47;;;5.21;100.00
23417;BME280;11881;42.432;25.632;2024-03-23T02:42:23;99385.59;;;5.25;100.00
23417;BME280;11881;42.432;25.632;2024-03-23T02:44:49;99390.56;;;5.17;100.00
23417;BME280;11881;42.432;25.632;2024-03-23T02:47:14;99388.53;;;5.07;100.00
23417;BME280;11881;42.432;25.632;2024-03-23T02:49:40;99388.34;;;4.84;100.00
23417;BME280;11881;42.432;25.632;2024-03-23T02:52:05;99382.44;;;4.93;100.00
23417;BME280;11881;42.432;25.632;2024-03-23T02:54:31;99384.38;;;5.03;100.00
23417;BME280;11881;42.432;25.632;2024-03-23T02:56:56;99389.25;;;5.10;100.00
23417;BME280;11881;42.432;25.632;2024-03-23T02:59:22;99388.34;;;5.11;100.00
23417;BME280;11881;42.432;25.632;2024-03-23T03:01:47;99382.59;;;5.04;100.00
23417;BME280;11881;42.432;25.632;2024-03-23T03:04:13;99391.38;;;5.04;100.00
23417;BME280;11881;42.432;25.632;2024-03-23T03:06:38;99389.91;;;5.13;100.00
23417;BME280;11881;42.432;25.632;2024-03-23T03:09:04;99386.53;;;5.11;100.00
23417;BME280;11881;42.432;25.632;2024-03-23T03:11:30;99390.06;;;4.97;100.00
23417;BME280;11881;42.432;25.632;2024-03-23T03:13:55;99390.00;;;4.99;100.00
23417;BME280;11881;42.432;25.632;2024-03-23T03:16:20;99394.31;;;5.00;100.00
23417;BME280;11881;42.432;25.632;2024-03-23T03:18:46;99385.56;;;4.99;100.00
23417;BME280;11881;42.432;25.632;2024-03-23T03:21:12;99393.19;;;4.77;100.00
23417;BME280;11881;42.432;25.632;2024-03-23T03:23:38;99391.03;;;4.69;100.00
23417;BME280;11881;42.432;25.632;2024-03-23T03:26:07;99386.22;;;4.76;100.00
23417;BME280;11881;42.432;25.632;2024-03-23T03:28:32;99387.41;;;4.85;100.00
23417;BME280;11881;42.432;25.632;2024-03-23T03:30:59;99388.63;;;4.52;100.00
23417;BME280;11881;42.432;25.632;2024-03-23T03:33:28;99392.88;;;4.54;100.00
23417;BME280;11881;42.432;25.632;2024-03-23T03:35:54;99390.00;;;4.72;100.00
23417;BME280;11881;42.432;25.632;2024-03-23T03:38:20;99386.84;;;4.79;100.00
23417;BME280;11881;42.432;25.632;2024-03-23T03:40:46;99397.94;;;4.85;100.00
23417;BME280;11881;42.432;25.632;2024-03-23T03:43:11;99396.53;;;4.93;100.00
23417;BME280;11881;42.432;25.632;2024-03-23T03:45:37;99389.00;;;4.87;100.00
23417;BME280;11881;42.432;25.632;2024-03-23T03:48:03;99401.72;;;4.80;100.00
23417;BME280;11881;42.432;25.632;2024-03-23T03:50:29;99398.03;;;4.56;100.00
23417;BME280;11881;42.432;25.632;2024-03-23T03:52:54;99402.75;;;4.51;100.00
23417;BME280;11881;42.432;25.632;2024-03-23T03:55:20;99394.84;;;4.51;100.00
23417;BME280;11881;42.432;25.632;2024-03-23T03:57:45;99401.13;;;4.63;100.00
23417;BME280;11881;42.432;25.632;2024-03-23T04:00:11;99398.88;;;4.71;100.00
23417;BME280;11881;42.432;25.632;2024-03-23T04:02:37;99405.38;;;4.65;100.00
23417;BME280;11881;42.432;25.632;2024-03-23T04:05:04;99404.25;;;4.55;100.00
23417;BME280;11881;42.432;25.632;2024-03-23T04:07:29;99408.69;;;4.54;100.00
23417;BME280;11881;42.432;25.632;2024-03-23T04:09:55;99407.47;;;4.60;100.00
23417;BME280;11881;42.432;25.632;2024-03-23T04:12:20;99400.84;;;4.26;100.00
23417;BME280;11881;42.432;25.632;2024-03-23T04:14:46;99400.44;;;4.32;100.00
23417;BME280;11881;42.432;25.632;2024-03-23T04:17:11;99408.13;;;4.49;100.00
23417;BME280;11881;42.432;25.632;2024-03-23T04:19:37;99401.06;;;4.50;100.00
23417;BME280;11881;42.432;25.632;2024-03-23T04:22:02;99410.88;;;4.48;100.00
23417;BME280;11881;42.432;25.632;2024-03-23T04:24:29;99407.56;;;4.59;100.00
23417;BME280;11881;42.432;25.632;2024-03-23T04:26:54;99408.31;;;4.61;100.00
23417;BME280;11881;42.432;25.632;2024-03-23T04:29:20;99418.31;;;4.56;100.00
23417;BME280;11881;42.432;25.632;2024-03-23T04:31:45;99419.97;;;4.30;100.00
23417;BME280;11881;42.432;25.632;2024-03-23T04:34:11;99414.84;;;4.41;100.00
23417;BME280;11881;42.432;25.632;2024-03-23T04:36:36;99417.75;;;4.50;100.00
23417;BME280;11881;42.432;25.632;2024-03-23T04:39:02;99415.38;;;4.46;100.00
23417;BME280;11881;42.432;25.632;2024-03-23T04:41:28;99419.44;;;4.51;100.00
23417;BME280;11881;42.432;25.632;2024-03-23T04:43:54;99425.41;;;4.41;100.00
23417;BME280;11881;42.432;25.632;2024-03-23T04:46:19;99423.41;;;4.44;100.00
23417;BME280;11881;42.432;25.632;2024-03-23T04:48:46;99421.16;;;4.52;100.00
23417;BME280;11881;42.432;25.632;2024-03-23T04:51:20;99420.19;;;4.53;100.00
23417;BME280;11881;42.432;25.632;2024-03-23T04:53:46;99427.06;;;4.56;100.00
23417;BME280;11881;42.432;25.632;2024-03-23T04:56:13;99414.13;;;4.66;100.00
23417;BME280;11881;42.432;25.632;2024-03-23T04:58:39;99427.88;;;4.71;100.00
23417;BME280;11881;42.432;25.632;2024-03-23T05:01:04;99432.59;;;4.66;100.00
23417;BME280;11881;42.432;25.632;2024-03-23T05:03:30;99431.09;;;4.62;100.00
23417;BME280;11881;42.432;25.632;2024-03-23T05:05:55;99432.94;;;4.74;100.00
23417;BME280;11881;42.432;25.632;2024-03-23T05:08:20;99427.28;;;4.80;100.00
23417;BME280;11881;42.432;25.632;2024-03-23T05:10:46;99427.75;;;5.26;100.00
23417;BME280;11881;42.432;25.632;2024-03-23T05:13:11;99425.25;;;5.38;100.00
23417;BME280;11881;42.432;25.632;2024-03-23T05:15:37;99437.09;;;5.45;100.00
23417;BME280;11881;42.432;25.632;2024-03-23T05:18:04;99426.34;;;5.48;100.00
23417;BME280;11881;42.432;25.632;2024-03-23T05:20:31;99433.44;;;5.73;100.00
23417;BME280;11881;42.432;25.632;2024-03-23T05:22:56;99431.81;;;5.97;100.00
23417;BME280;11881;42.432;25.632;2024-03-23T05:25:22;99431.69;;;5.99;100.00
23417;BME280;11881;42.432;25.632;2024-03-23T05:27:48;99435.59;;;6.06;100.00
23417;BME280;11881;42.432;25.632;2024-03-23T05:30:13;99436.56;;;6.18;100.00
23417;BME280;11881;42.432;25.632;2024-03-23T05:32:39;99436.00;;;6.25;100.00
23417;BME280;11881;42.432;25.632;2024-03-23T05:35:07;99441.72;;;6.32;100.00
23417;BME280;11881;42.432;25.632;2024-03-23T05:37:33;99433.94;;;6.54;100.00
23417;BME280;11881;42.432;25.632;2024-03-23T05:40:03;99428.81;;;6.77;100.00
23417;BME280;11881;42.432;25.632;2024-03-23T05:42:29;99432.03;;;6.93;100.00
23417;BME280;11881;42.432;25.632;2024-03-23T05:44:54;99421.69;;;7.01;100.00
23417;BME280;11881;42.432;25.632;2024-03-23T05:47:20;99420.13;;;7.23;100.00
23417;BME280;11881;42.432;25.632;2024-03-23T05:49:46;99423.06;;;7.42;100.00
23417;BME280;11881;42.432;25.632;2024-03-23T05:52:11;99417.72;;;7.55;100.00
23417;BME280;11881;42.432;25.632;2024-03-23T05:54:37;99412.25;;;7.45;100.00
23417;BME280;11881;42.432;25.632;2024-03-23T05:57:03;99415.22;;;7.76;100.00
23417;BME280;11881;42.432;25.632;2024-03-23T05:59:29;99408.84;;;7.32;100.00
23417;BME280;11881;42.432;25.632;2024-03-23T06:01:54;99406.75;;;7.59;100.00
23417;BME280;11881;42.432;25.632;2024-03-23T06:04:20;99407.16;;;7.88;100.00
23417;BME280;11881;42.432;25.632;2024-03-23T06:06:46;99404.88;;;8.17;100.00
23417;BME280;11881;42.432;25.632;2024-03-23T06:09:12;99410.94;;;8.19;100.00
23417;BME280;11881;42.432;25.632;2024-03-23T06:11:37;99404.44;;;8.01;100.00
23417;BME280;11881;42.432;25.632;2024-03-23T06:14:03;99397.06;;;8.27;100.00
23417;BME280;11881;42.432;25.632;2024-03-23T06:16:29;99402.75;;;8.45;100.00
23417;BME280;11881;42.432;25.632;2024-03-23T06:18:56;99397.22;;;8.48;100.00
23417;BME280;11881;42.432;25.632;2024-03-23T06:21:21;99393.78;;;8.68;100.00
23417;BME280;11881;42.432;25.632;2024-03-23T06:23:51;99402.75;;;8.45;100.00
23417;BME280;11881;42.432;25.632;2024-03-23T06:26:20;99399.59;;;8.51;100.00
23417;BME280;11881;42.432;25.632;2024-03-23T06:28:47;99397.16;;;8.70;100.00
23417;BME280;11881;42.432;25.632;2024-03-23T06:31:12;99405.38;;;8.56;100.00
23417;BME280;11881;42.432;25.632;2024-03-23T06:33:38;99394.09;;;8.86;100.00
23417;BME280;11881;42.432;25.632;2024-03-23T06:36:05;99400.31;;;9.07;100.00
23417;BME280;11881;42.432;25.632;2024-03-23T06:38:31;99401.19;;;8.97;100.00
23417;BME280;11881;42.432;25.632;2024-03-23T06:40:56;99399.56;;;9.17;100.00
23417;BME280;11881;42.432;25.632;2024-03-23T06:43:22;99401.44;;;9.26;100.00
23417;BME280;11881;42.432;25.632;2024-03-23T06:45:53;99402.38;;;9.04;100.00
23417;BME280;11881;42.432;25.632;2024-03-23T06:48:19;99404.34;;;8.91;100.00
23417;BME280;11881;42.432;25.632;2024-03-23T06:50:45;99407.41;;;9.39;100.00
23417;BME280;11881;42.432;25.632;2024-03-23T06:53:14;99406.00;;;9.35;100.00
23417;BME280;11881;42.432;25.632;2024-03-23T06:55:40;99401.34;;;9.48;100.00
23417;BME280;11881;42.432;25.632;2024-03-23T06:58:06;99414.13;;;9.54;100.00
23417;BME280;11881;42.432;25.632;2024-03-23T07:00:32;99403.78;;;9.19;100.00
23417;BME280;11881;42.432;25.632;2024-03-23T07:02:58;99405.22;;;9.44;100.00
23417;BME280;11881;42.432;25.632;2024-03-23T07:05:23;99410.84;;;9.30;100.00
23417;BME280;11881;42.432;25.632;2024-03-23T07:07:49;99396.31;;;9.13;100.00
23417;BME280;11881;42.432;25.632;2024-03-23T07:10:14;99402.69;;;9.43;100.00
23417;BME280;11881;42.432;25.632;2024-03-23T07:12:40;99403.41;;;9.45;100.00
23417;BME280;11881;42.432;25.632;2024-03-23T07:15:07;99405.94;;;9.67;100.00
23417;BME280;11881;42.432;25.632;2024-03-23T07:17:33;99406.47;;;9.82;100.00
23417;BME280;11881;42.432;25.632;2024-03-23T07:20:01;99414.06;;;10.17;100.00
23417;BME280;11881;42.432;25.632;2024-03-23T07:22:32;99413.63;;;10.12;100.00
23417;BME280;11881;42.432;25.632;2024-03-23T07:25:00;99405.50;;;10.34;100.00
23417;BME280;11881;42.432;25.632;2024-03-23T07:27:26;99409.84;;;10.35;99.42
23417;BME280;11881;42.432;25.632;2024-03-23T07:29:52;99402.28;;;10.41;98.96
23417;BME280;11881;42.432;25.632;2024-03-23T07:32:17;99408.31;;;10.12;100.00
23417;BME280;11881;42.432;25.632;2024-03-23T07:34:43;99401.00;;;9.83;100.00
23417;BME280;11881;42.432;25.632;2024-03-23T07:37:10;99386.31;;;10.41;99.96
23417;BME280;11881;42.432;25.632;2024-03-23T07:39:35;99390.31;;;10.65;97.49
23417;BME280;11881;42.432;25.632;2024-03-23T07:42:01;99385.97;;;10.24;97.93
23417;BME280;11881;42.432;25.632;2024-03-23T07:44:27;99384.97;;;10.25;100.00
23417;BME280;11881;42.432;25.632;2024-03-23T07:46:52;99386.59;;;10.97;94.91
23417;BME280;11881;42.432;25.632;2024-03-23T07:49:18;99387.13;;;11.01;95.85
23417;BME280;11881;42.432;25.632;2024-03-23T07:51:43;99388.13;;;10.09;97.33
23417;BME280;11881;42.432;25.632;2024-03-23T07:54:10;99380.91;;;10.61;96.85
23417;BME280;11881;42.432;25.632;2024-03-23T07:56:35;99390.63;;;10.82;95.31
23417;BME280;11881;42.432;25.632;2024-03-23T07:59:01;99385.72;;;11.06;93.61
23417;BME280;11881;42.432;25.632;2024-03-23T08:01:28;99386.72;;;11.25;93.53
23417;BME280;11881;42.432;25.632;2024-03-23T08:03:54;99381.25;;;11.07;94.61
23417;BME280;11881;42.432;25.632;2024-03-23T08:06:20;99377.88;;;11.34;93.67
23417;BME280;11881;42.432;25.632;2024-03-23T08:08:48;99381.94;;;11.48;91.61
23417;BME280;11881;42.432;25.632;2024-03-23T08:11:14;99384.31;;;11.41;91.16
23417;BME280;11881;42.432;25.632;2024-03-23T08:13:41;99391.59;;;10.81;92.02
23417;BME280;11881;42.432;25.632;2024-03-23T08:16:07;99376.34;;;11.02;92.08
23417;BME280;11881;42.432;25.632;2024-03-23T08:18:34;99374.19;;;11.64;91.42
23417;BME280;11881;42.432;25.632;2024-03-23T08:21:01;99373.09;;;11.47;90.03
23417;BME280;11881;42.432;25.632;2024-03-23T08:23:28;99384.75;;;11.56;89.24
23417;BME280;11881;42.432;25.632;2024-03-23T08:26:00;99368.31;;;11.60;90.56
23417;BME280;11881;42.432;25.632;2024-03-23T08:28:27;99369.19;;;12.08;86.06
23417;BME280;11881;42.432;25.632;2024-03-23T08:30:54;99368.75;;;11.56;87.95
23417;BME280;11881;42.432;25.632;2024-03-23T08:33:20;99365.13;;;12.04;86.49
23417;BME280;11881;42.432;25.632;2024-03-23T08:36:12;99353.66;;;11.74;84.14
23417;BME280;11881;42.432;25.632;2024-03-23T08:38:39;99353.88;;;12.00;84.57
23417;BME280;11881;42.432;25.632;2024-03-23T08:41:09;99347.47;;;12.30;83.05
23417;BME280;11881;42.432;25.632;2024-03-23T08:43:37;99347.91;;;12.25;82.55
23417;BME280;11881;42.432;25.632;2024-03-23T08:46:07;99347.84;;;12.08;83.86
23417;BME280;11881;42.432;25.632;2024-03-23T08:48:37;99340.22;;;11.66;85.00
23417;BME280;11881;42.432;25.632;2024-03-23T08:51:07;99348.25;;;12.03;85.00
23417;BME280;11881;42.432;25.632;2024-03-23T08:53:34;99342.00;;;12.22;82.56
23417;BME280;11881;42.432;25.632;2024-03-23T08:56:00;99332.34;;;12.66;80.78
23417;BME280;11881;42.432;25.632;2024-03-23T08:58:28;99331.56;;;12.74;80.29
23417;BME280;11881;42.432;25.632;2024-03-23T09:00:55;99324.63;;;12.81;81.81
23417;BME280;11881;42.432;25.632;2024-03-23T09:03:25;99322.25;;;13.31;78.40
23417;BME280;11881;42.432;25.632;2024-03-23T09:05:54;99324.78;;;13.15;77.49
23417;BME280;11881;42.432;25.632;2024-03-23T09:08:21;99321.59;;;13.29;77.27
23417;BME280;11881;42.432;25.632;2024-03-23T09:10:47;99325.38;;;13.45;75.09
23417;BME280;11881;42.432;25.632;2024-03-23T09:13:13;99319.53;;;13.05;75.96
23417;BME280;11881;42.432;25.632;2024-03-23T09:15:46;99314.25;;;12.96;75.95
23417;BME280;11881;42.432;25.632;2024-03-23T09:18:12;99316.31;;;13.64;74.27
23417;BME280;11881;42.432;25.632;2024-03-23T09:20:37;99318.88;;;13.47;73.36
23417;BME280;11881;42.432;25.632;2024-03-23T09:23:03;99307.50;;;13.27;73.56
23417;BME280;11881;42.432;25.632;2024-03-23T09:25:29;99307.06;;;13.58;73.92
23417;BME280;11881;42.432;25.632;2024-03-23T09:27:54;99300.69;;;13.33;72.37
23417;BME280;11881;42.432;25.632;2024-03-23T09:30:19;99300.38;;;13.88;70.98
23417;BME280;11881;42.432;25.632;2024-03-23T09:32:45;99298.44;;;13.72;70.45
23417;BME280;11881;42.432;25.632;2024-03-23T09:35:11;99296.50;;;13.82;69.90
23417;BME280;11881;42.432;25.632;2024-03-23T09:37:38;99287.09;;;14.04;67.87
23417;BME280;11881;42.432;25.632;2024-03-23T09:40:08;99288.31;;;13.84;67.81
23417;BME280;11881;42.432;25.632;2024-03-23T09:42:34;99280.38;;;14.08;69.60
23417;BME280;11881;42.432;25.632;2024-03-23T09:45:00;99269.38;;;14.20;69.65
23417;BME280;11881;42.432;25.632;2024-03-23T09:47:26;99267.50;;;14.04;69.13
23417;BME280;11881;42.432;25.632;2024-03-23T09:49:52;99264.63;;;14.05;69.71
23417;BME280;11881;42.432;25.632;2024-03-23T09:52:18;99256.66;;;14.22;68.35
23417;BME280;11881;42.432;25.632;2024-03-23T09:54:44;99256.53;;;13.89;66.76
23417;BME280;11881;42.432;25.632;2024-03-23T09:57:10;99253.03;;;14.39;66.01
23417;BME280;11881;42.432;25.632;2024-03-23T09:59:35;99245.41;;;14.77;65.85
23417;BME280;11881;42.432;25.632;2024-03-23T10:02:01;99248.09;;;14.77;64.17
23417;BME280;11881;42.432;25.632;2024-03-23T10:04:40;99248.09;;;15.09;64.05
23417;BME280;11881;42.432;25.632;2024-03-23T10:07:18;99239.69;;;14.55;62.40
23417;BME280;11881;42.432;25.632;2024-03-23T10:09:44;99234.00;;;15.07;60.27
23417;BME280;11881;42.432;25.632;2024-03-23T10:12:14;99221.28;;;14.93;58.86
23417;BME280;11881;42.432;25.632;2024-03-23T10:14:43;99227.91;;;15.62;60.33
23417;BME280;11881;42.432;25.632;2024-03-23T10:19:39;99213.66;;;15.46;56.42
23417;BME280;11881;42.432;25.632;2024-03-23T10:22:06;99216.00;;;15.49;54.99
23417;BME280;11881;42.432;25.632;2024-03-23T10:24:32;99213.88;;;15.11;55.90
23417;BME280;11881;42.432;25.632;2024-03-23T10:26:58;99206.56;;;15.69;57.00
23417;BME280;11881;42.432;25.632;2024-03-23T10:29:23;99201.63;;;15.89;55.02
23417;BME280;11881;42.432;25.632;2024-03-23T10:31:51;99194.09;;;15.84;55.54
23417;BME280;11881;42.432;25.632;2024-03-23T10:34:16;99195.97;;;14.79;56.46
23417;BME280;11881;42.432;25.632;2024-03-23T10:36:50;99193.50;;;15.41;57.99
23417;BME280;11881;42.432;25.632;2024-03-23T10:39:17;99182.81;;;15.89;55.18
23417;BME280;11881;42.432;25.632;2024-03-23T10:41:44;99188.25;;;16.35;52.40
23417;BME280;11881;42.432;25.632;2024-03-23T10:44:11;99182.88;;;16.35;51.97
23417;BME280;11881;42.432;25.632;2024-03-23T10:46:37;99171.16;;;16.28;51.51
23417;BME280;11881;42.432;25.632;2024-03-23T10:49:03;99165.75;;;15.74;52.65
23417;BME280;11881;42.432;25.632;2024-03-23T10:51:29;99167.16;;;16.23;50.34
23417;BME280;11881;42.432;25.632;2024-03-23T10:53:55;99164.34;;;16.40;50.66
23417;BME280;11881;42.432;25.632;2024-03-23T10:56:22;99157.94;;;16.64;50.17
23417;BME280;11881;42.432;25.632;2024-03-23T10:58:48;99159.94;;;16.47;48.88
23417;BME280;11881;42.432;25.632;2024-03-23T11:01:15;99150.44;;;16.36;51.16
23417;BME280;11881;42.432;25.632;2024-03-23T11:03:47;99153.28;;;16.35;50.52
23417;BME280;11881;42.432;25.632;2024-03-23T11:06:34;99148.75;;;16.12;51.35
23417;BME280;11881;42.432;25.632;2024-03-23T11:09:00;99150.50;;;16.51;50.04
23417;BME280;11881;42.432;25.632;2024-03-23T11:11:25;99134.88;;;16.46;50.00
23417;BME280;11881;42.432;25.632;2024-03-23T11:13:53;99140.63;;;16.66;51.04
23417;BME280;11881;42.432;25.632;2024-03-23T11:16:26;99132.59;;;16.58;49.91
23417;BME280;11881;42.432;25.632;2024-03-23T11:19:37;99126.53;;;16.64;49.83
23417;BME280;11881;42.432;25.632;2024-03-23T11:22:03;99115.13;;;16.16;49.96
23417;BME280;11881;42.432;25.632;2024-03-23T11:24:29;99110.28;;;16.35;51.47
23417;BME280;11881;42.432;25.632;2024-03-23T11:26:54;99115.41;;;16.44;51.14
23417;BME280;11881;42.432;25.632;2024-03-23T11:29:20;99106.47;;;16.06;51.13
23417;BME280;11881;42.432;25.632;2024-03-23T11:31:50;99101.22;;;16.36;48.65
23417;BME280;11881;42.432;25.632;2024-03-23T11:34:16;99098.88;;;16.33;48.86
23417;BME280;11881;42.432;25.632;2024-03-23T11:36:45;99086.63;;;16.53;49.47
23417;BME280;11881;42.432;25.632;2024-03-23T11:39:15;99093.38;;;16.26;49.08
23417;BME280;11881;42.432;25.632;2024-03-23T11:41:52;99078.16;;;16.41;47.83
23417;BME280;11881;42.432;25.632;2024-03-23T11:44:19;99073.28;;;16.60;46.60
23417;BME280;11881;42.432;25.632;2024-03-23T11:46:45;99080.41;;;16.67;44.96
23417;BME280;11881;42.432;25.632;2024-03-23T11:49:27;99069.16;;;16.49;45.27
23417;BME280;11881;42.432;25.632;2024-03-23T11:51:54;99065.72;;;16.78;44.22
23417;BME280;11881;42.432;25.632;2024-03-23T11:54:23;99058.22;;;16.88;42.64
23417;BME280;11881;42.432;25.632;2024-03-23T11:57:00;99051.19;;;16.87;43.48
23417;BME280;11881;42.432;25.632;2024-03-23T12:01:57;99043.88;;;15.98;46.08
23417;BME280;11881;42.432;25.632;2024-03-23T12:04:29;99043.63;;;16.30;47.67
23417;BME280;11881;42.432;25.632;2024-03-23T12:07:10;99044.78;;;16.50;45.36
23417;BME280;11881;42.432;25.632;2024-03-23T12:09:36;99032.44;;;16.56;46.36
23417;BME280;11881;42.432;25.632;2024-03-23T12:12:08;99021.94;;;16.46;48.74
23417;BME280;11881;42.432;25.632;2024-03-23T12:14:33;99031.84;;;16.31;47.25
23417;BME280;11881;42.432;25.632;2024-03-23T12:17:21;99044.75;;;16.36;45.85
23417;BME280;11881;42.432;25.632;2024-03-23T12:19:47;99027.81;;;15.58;49.20
23417;BME280;11881;42.432;25.632;2024-03-23T12:22:12;99019.75;;;15.66;49.10
23417;BME280;11881;42.432;25.632;2024-03-23T12:24:38;99017.81;;;15.83;48.66
23417;BME280;11881;42.432;25.632;2024-03-23T12:27:10;99017.25;;;15.88;49.06
23417;BME280;11881;42.432;25.632;2024-03-23T12:29:35;99009.34;;;16.09;47.45
23417;BME280;11881;42.432;25.632;2024-03-23T12:32:02;99002.66;;;15.82;45.84
23417;BME280;11881;42.432;25.632;2024-03-23T12:34:28;99006.91;;;16.00;45.48
23417;BME280;11881;42.432;25.632;2024-03-23T12:36:54;99000.28;;;16.10;45.79
23417;BME280;11881;42.432;25.632;2024-03-23T12:39:20;98986.69;;;16.94;45.49
23417;BME280;11881;42.432;25.632;2024-03-23T12:41:49;98994.00;;;17.00;45.60
23417;BME280;11881;42.432;25.632;2024-03-23T12:44:15;98999.22;;;16.72;42.98
23417;BME280;11881;42.432;25.632;2024-03-23T12:46:41;98987.03;;;15.86;43.77
23417;BME280;11881;42.432;25.632;2024-03-23T12:49:07;98984.47;;;15.69;45.65
23417;BME280;11881;42.432;25.632;2024-03-23T12:51:33;98982.00;;;15.60;45.35
23417;BME280;11881;42.432;25.632;2024-03-23T12:53:58;98984.72;;;15.52;44.38
23417;BME280;11881;42.432;25.632;2024-03-23T12:56:24;98977.31;;;15.54;45.13
23417;BME280;11881;42.432;25.632;2024-03-23T12:58:49;98969.75;;;15.65;44.82
23417;BME280;11881;42.432;25.632;2024-03-23T13:01:19;98965.63;;;15.78;44.49
23417;BME280;11881;42.432;25.632;2024-03-23T13:03:48;98960.00;;;15.64;44.19
23417;BME280;11881;42.432;25.632;2024-03-23T13:06:14;98971.75;;;15.63;44.49
23417;BME280;11881;42.432;25.632;2024-03-23T13:08:39;98964.81;;;15.46;44.01
23417;BME280;11881;42.432;25.632;2024-03-23T13:11:09;98970.28;;;15.53;44.06
23417;BME280;11881;42.432;25.632;2024-03-23T13:13:36;98968.19;;;15.40;43.92
23417;BME280;11881;42.432;25.632;2024-03-23T13:16:02;98964.19;;;15.36;43.75
23417;BME280;11881;42.432;25.632;2024-03-23T13:18:31;98955.84;;;15.31;42.68
23417;BME280;11881;42.432;25.632;2024-03-23T13:20:56;98948.16;;;15.28;43.07
23417;BME280;11881;42.432;25.632;2024-03-23T13:23:22;98946.66;;;15.25;42.95
23417;BME280;11881;42.432;25.632;2024-03-23T13:25:51;98941.66;;;15.45;43.21
23417;BME280;11881;42.432;25.632;2024-03-23T13:28:21;98949.53;;;15.47;43.26
23417;BME280;11881;42.432;25.632;2024-03-23T13:30:54;98942.78;;;15.28;43.35
23417;BME280;11881;42.432;25.632;2024-03-23T13:33:20;98933.25;;;15.25;43.46
23417;BME280;11881;42.432;25.632;2024-03-23T13:35:52;98932.22;;;15.26;42.79
23417;BME280;11881;42.432;25.632;2024-03-23T13:38:18;98931.94;;;15.44;42.76
23417;BME280;11881;42.432;25.632;2024-03-23T13:40:55;98930.13;;;15.36;42.16
23417;BME280;11881;42.432;25.632;2024-03-23T13:43:21;98928.13;;;15.38;41.53
23417;BME280;11881;42.432;25.632;2024-03-23T13:45:48;98925.13;;;15.33;41.62
23417;BME280;11881;42.432;25.632;2024-03-23T13:48:15;98920.53;;;15.19;41.70